sensor_id;sensor_type;location;lat;lon;timestamp;P1;durP1;ratioP1;P2;durP2;ratioP2
15966;SDS011;15175;48.154;11.534;2023-12-28T00:05:16;3.83;;;1.10;;
15966;SDS011;15175;48.154;11.534;2023-12-28T00:11:19;3.42;;;1.17;;
15966;SDS011;15175;48.154;11.534;2023-12-28T00:17:22;3.33;;;1.23;;
15966;SDS011;15175;48.154;11.534;2023-12-28T00:23:25;3.35;;;1.27;;
15966;SDS011;15175;48.154;11.534;2023-12-28T00:29:27;2.42;;;0.90;;
15966;SDS011;15175;48.154;11.534;2023-12-28T00:35:31;3.60;;;1.38;;
15966;SDS011;15175;48.154;11.534;2023-12-28T00:41:33;3.45;;;1.20;;
15966;SDS011;15175;48.154;11.534;2023-12-28T00:47:35;3.85;;;1.13;;
15966;SDS011;15175;48.154;11.534;2023-12-28T00:53:39;5.47;;;1.10;;
15966;SDS011;15175;48.154;11.534;2023-12-28T00:59:41;3.05;;;1.00;;
15966;SDS011;15175;48.154;11.534;2023-12-28T01:05:44;3.20;;;1.00;;
15966;SDS011;15175;48.154;11.534;2023-12-28T01:11:49;3.17;;;0.98;;
15966;SDS011;15175;48.154;11.534;2023-12-28T01:17:51;3.00;;;1.00;;
15966;SDS011;15175;48.154;11.534;2023-12-28T01:23:53;3.15;;;1.00;;
15966;SDS011;15175;48.154;11.534;2023-12-28T01:29:57;2.55;;;1.10;;
15966;SDS011;15175;48.154;11.534;2023-12-28T01:35:59;2.75;;;0.95;;
15966;SDS011;15175;48.154;11.534;2023-12-28T01:42:02;2.83;;;1.00;;
15966;SDS011;15175;48.154;11.534;2023-12-28T01:48:06;4.40;;;1.10;;
15966;SDS011;15175;48.154;11.534;2023-12-28T01:54:08;2.38;;;0.98;;
15966;SDS011;15175;48.154;11.534;2023-12-28T02:06:45;5.50;;;1.05;;
15966;SDS011;15175;48.154;11.534;2023-12-28T02:12:47;2.40;;;1.23;;
15966;SDS011;15175;48.154;11.534;2023-12-28T02:18:50;2.92;;;1.00;;
15966;SDS011;15175;48.154;11.534;2023-12-28T02:25:06;3.08;;;1.00;;
15966;SDS011;15175;48.154;11.534;2023-12-28T02:31:10;3.53;;;1.00;;
15966;SDS011;15175;48.154;11.534;2023-12-28T02:37:23;2.63;;;1.00;;
15966;SDS011;15175;48.154;11.534;2023-12-28T02:43:28;3.53;;;0.98;;
15966;SDS011;15175;48.154;11.534;2023-12-28T02:49:31;2.22;;;0.65;;
15966;SDS011;15175;48.154;11.534;2023-12-28T02:55:33;2.47;;;0.85;;
15966;SDS011;15175;48.154;11.534;2023-12-28T03:01:37;4.97;;;0.95;;
15966;SDS011;15175;48.154;11.534;2023-12-28T03:07:39;2.70;;;0.88;;
15966;SDS011;15175;48.154;11.534;2023-12-28T03:13:42;1.92;;;0.60;;
15966;SDS011;15175;48.154;11.534;2023-12-28T03:19:46;1.38;;;0.52;;
15966;SDS011;15175;48.154;11.534;2023-12-28T03:25:48;2.15;;;0.93;;
15966;SDS011;15175;48.154;11.534;2023-12-28T03:31:50;3.00;;;1.00;;
15966;SDS011;15175;48.154;11.534;2023-12-28T03:37:54;2.25;;;0.70;;
15966;SDS011;15175;48.154;11.534;2023-12-28T03:43:56;2.15;;;0.80;;
15966;SDS011;15175;48.154;11.534;2023-12-28T03:49:58;2.58;;;0.85;;
15966;SDS011;15175;48.154;11.534;2023-12-28T03:56:03;2.03;;;0.52;;
15966;SDS011;15175;48.154;11.534;2023-12-28T04:02:08;3.53;;;0.88;;
15966;SDS011;15175;48.154;11.534;2023-12-28T04:08:10;2.03;;;0.32;;
15966;SDS011;15175;48.154;11.534;2023-12-28T04:14:14;1.55;;;0.40;;
15966;SDS011;15175;48.154;11.534;2023-12-28T04:20:16;1.65;;;0.77;;
15966;SDS011;15175;48.154;11.534;2023-12-28T04:26:19;1.38;;;0.50;;
15966;SDS011;15175;48.154;11.534;2023-12-28T04:32:23;1.30;;;0.50;;
15966;SDS011;15175;48.154;11.534;2023-12-28T04:38:26;2.17;;;0.63;;
15966;SDS011;15175;48.154;11.534;2023-12-28T04:44:28;2.22;;;0.80;;
15966;SDS011;15175;48.154;11.534;2023-12-28T04:50:31;1.10;;;0.40;;
15966;SDS011;15175;48.154;11.534;2023-12-28T04:56:34;1.35;;;0.60;;
15966;SDS011;15175;48.154;11.534;2023-12-28T05:02:36;1.50;;;0.50;;
15966;SDS011;15175;48.154;11.534;2023-12-28T05:08:39;1.73;;;0.50;;
15966;SDS011;15175;48.154;11.534;2023-12-28T05:14:42;2.20;;;0.70;;
15966;SDS011;15175;48.154;11.534;2023-12-28T05:20:44;4.65;;;0.70;;
15966;SDS011;15175;48.154;11.534;2023-12-28T05:26:47;1.27;;;0.60;;
15966;SDS011;15175;48.154;11.534;2023-12-28T05:32:50;1.52;;;0.70;;
15966;SDS011;15175;48.154;11.534;2023-12-28T05:38:52;2.35;;;0.52;;
15966;SDS011;15175;48.154;11.534;2023-12-28T05:44:55;2.88;;;1.00;;
15966;SDS011;15175;48.154;11.534;2023-12-28T05:50:57;1.80;;;0.60;;
15966;SDS011;15175;48.154;11.534;2023-12-28T05:57:00;1.45;;;0.60;;
15966;SDS011;15175;48.154;11.534;2023-12-28T06:03:03;1.45;;;0.50;;
15966;SDS011;15175;48.154;11.534;2023-12-28T06:09:06;1.88;;;0.60;;
15966;SDS011;15175;48.154;11.534;2023-12-28T06:15:08;3.22;;;0.60;;
15966;SDS011;15175;48.154;11.534;2023-12-28T06:21:12;2.42;;;0.82;;
15966;SDS011;15175;48.154;11.534;2023-12-28T06:27:15;1.85;;;0.60;;
15966;SDS011;15175;48.154;11.534;2023-12-28T06:33:17;0.80;;;0.40;;
15966;SDS011;15175;48.154;11.534;2023-12-28T06:39:20;2.05;;;0.50;;
15966;SDS011;15175;48.154;11.534;2023-12-28T06:45:23;2.33;;;0.40;;
15966;SDS011;15175;48.154;11.534;2023-12-28T06:51:28;2.40;;;0.70;;
15966;SDS011;15175;48.154;11.534;2023-12-28T06:57:31;2.17;;;0.57;;
15966;SDS011;15175;48.154;11.534;2023-12-28T07:03:33;3.38;;;1.00;;
15966;SDS011;15175;48.154;11.534;2023-12-28T07:09:36;2.50;;;0.90;;
15966;SDS011;15175;48.154;11.534;2023-12-28T07:15:39;2.13;;;0.70;;
15966;SDS011;15175;48.154;11.534;2023-12-28T07:21:41;1.30;;;0.55;;
15966;SDS011;15175;48.154;11.534;2023-12-28T07:27:44;2.03;;;0.70;;
15966;SDS011;15175;48.154;11.534;2023-12-28T07:33:48;4.40;;;0.80;;
15966;SDS011;15175;48.154;11.534;2023-12-28T07:39:50;3.00;;;0.80;;
15966;SDS011;15175;48.154;11.534;2023-12-28T07:45:52;1.88;;;0.77;;
15966;SDS011;15175;48.154;11.534;2023-12-28T07:51:56;4.88;;;0.70;;
15966;SDS011;15175;48.154;11.534;2023-12-28T07:57:58;3.50;;;1.10;;
15966;SDS011;15175;48.154;11.534;2023-12-28T08:04:01;5.93;;;0.80;;
15966;SDS011;15175;48.154;11.534;2023-12-28T08:10:06;4.25;;;0.70;;
15966;SDS011;15175;48.154;11.534;2023-12-28T08:16:09;2.78;;;0.85;;
15966;SDS011;15175;48.154;11.534;2023-12-28T08:22:11;2.95;;;1.05;;
15966;SDS011;15175;48.154;11.534;2023-12-28T08:28:15;6.35;;;0.85;;
15966;SDS011;15175;48.154;11.534;2023-12-28T08:34:17;2.08;;;0.82;;
15966;SDS011;15175;48.154;11.534;2023-12-28T08:40:19;7.40;;;1.05;;
15966;SDS011;15175;48.154;11.534;2023-12-28T08:46:23;3.90;;;0.95;;
15966;SDS011;15175;48.154;11.534;2023-12-28T08:52:26;1.25;;;0.60;;
15966;SDS011;15175;48.154;11.534;2023-12-28T08:58:28;3.08;;;0.90;;
15966;SDS011;15175;48.154;11.534;2023-12-28T09:04:31;3.17;;;0.75;;
15966;SDS011;15175;48.154;11.534;2023-12-28T09:10:34;2.97;;;0.80;;
15966;SDS011;15175;48.154;11.534;2023-12-28T09:16:36;3.03;;;0.98;;
15966;SDS011;15175;48.154;11.534;2023-12-28T09:22:41;2.45;;;0.82;;
15966;SDS011;15175;48.154;11.534;2023-12-28T09:28:43;2.45;;;0.70;;
15966;SDS011;15175;48.154;11.534;2023-12-28T09:34:45;2.00;;;0.60;;
15966;SDS011;15175;48.154;11.534;2023-12-28T09:40:49;2.75;;;0.80;;
15966;SDS011;15175;48.154;11.534;2023-12-28T09:46:54;2.63;;;0.63;;
15966;SDS011;15175;48.154;11.534;2023-12-28T09:52:58;2.22;;;0.80;;
15966;SDS011;15175;48.154;11.534;2023-12-28T09:59:01;3.30;;;0.95;;
15966;SDS011;15175;48.154;11.534;2023-12-28T10:05:06;1.83;;;0.77;;
15966;SDS011;15175;48.154;11.534;2023-12-28T10:11:08;2.85;;;0.95;;
15966;SDS011;15175;48.154;11.534;2023-12-28T10:17:12;4.65;;;1.67;;
15966;SDS011;15175;48.154;11.534;2023-12-28T10:23:14;3.85;;;1.08;;
15966;SDS011;15175;48.154;11.534;2023-12-28T10:29:16;1.70;;;0.73;;
15966;SDS011;15175;48.154;11.534;2023-12-28T10:35:20;3.55;;;0.90;;
15966;SDS011;15175;48.154;11.534;2023-12-28T10:41:22;1.85;;;0.60;;
15966;SDS011;15175;48.154;11.534;2023-12-28T10:47:25;3.25;;;0.95;;
15966;SDS011;15175;48.154;11.534;2023-12-28T10:53:36;4.32;;;1.17;;
15966;SDS011;15175;48.154;11.534;2023-12-28T10:59:45;2.35;;;0.90;;
15966;SDS011;15175;48.154;11.534;2023-12-28T11:05:56;2.30;;;0.95;;
15966;SDS011;15175;48.154;11.534;2023-12-28T11:12:00;3.33;;;0.90;;
15966;SDS011;15175;48.154;11.534;2023-12-28T11:18:04;3.95;;;0.90;;
15966;SDS011;15175;48.154;11.534;2023-12-28T11:24:06;4.72;;;1.42;;
15966;SDS011;15175;48.154;11.534;2023-12-28T11:30:11;3.22;;;1.10;;
15966;SDS011;15175;48.154;11.534;2023-12-28T11:36:19;4.45;;;0.60;;
15966;SDS011;15175;48.154;11.534;2023-12-28T11:42:24;2.60;;;0.85;;
15966;SDS011;15175;48.154;11.534;2023-12-28T11:48:28;1.83;;;0.68;;
15966;SDS011;15175;48.154;11.534;2023-12-28T11:54:30;1.98;;;0.73;;
15966;SDS011;15175;48.154;11.534;2023-12-28T12:00:32;4.13;;;0.98;;
15966;SDS011;15175;48.154;11.534;2023-12-28T12:06:36;3.95;;;0.60;;
15966;SDS011;15175;48.154;11.534;2023-12-28T12:12:38;3.15;;;0.93;;
15966;SDS011;15175;48.154;11.534;2023-12-28T12:18:40;6.00;;;1.10;;
15966;SDS011;15175;48.154;11.534;2023-12-28T12:24:45;2.00;;;0.80;;
15966;SDS011;15175;48.154;11.534;2023-12-28T12:30:50;2.80;;;1.00;;
15966;SDS011;15175;48.154;11.534;2023-12-28T12:36:54;1.58;;;0.45;;
15966;SDS011;15175;48.154;11.534;2023-12-28T12:43:00;3.15;;;1.10;;
15966;SDS011;15175;48.154;11.534;2023-12-28T12:49:02;2.65;;;0.80;;
15966;SDS011;15175;48.154;11.534;2023-12-28T12:55:04;2.65;;;0.98;;
15966;SDS011;15175;48.154;11.534;2023-12-28T13:01:13;4.28;;;1.00;;
15966;SDS011;15175;48.154;11.534;2023-12-28T13:07:15;2.63;;;0.70;;
15966;SDS011;15175;48.154;11.534;2023-12-28T13:13:17;2.83;;;0.75;;
15966;SDS011;15175;48.154;11.534;2023-12-28T13:19:21;2.67;;;0.98;;
15966;SDS011;15175;48.154;11.534;2023-12-28T13:25:23;2.28;;;0.80;;
15966;SDS011;15175;48.154;11.534;2023-12-28T13:31:25;3.08;;;1.00;;
15966;SDS011;15175;48.154;11.534;2023-12-28T13:37:29;3.55;;;1.10;;
15966;SDS011;15175;48.154;11.534;2023-12-28T13:43:31;2.67;;;0.85;;
15966;SDS011;15175;48.154;11.534;2023-12-28T13:49:34;2.70;;;1.00;;
15966;SDS011;15175;48.154;11.534;2023-12-28T13:55:38;2.70;;;0.70;;
15966;SDS011;15175;48.154;11.534;2023-12-28T14:01:40;2.58;;;0.75;;
15966;SDS011;15175;48.154;11.534;2023-12-28T14:07:42;2.88;;;1.00;;
15966;SDS011;15175;48.154;11.534;2023-12-28T14:13:46;4.70;;;1.08;;
15966;SDS011;15175;48.154;11.534;2023-12-28T14:19:48;3.38;;;1.00;;
15966;SDS011;15175;48.154;11.534;2023-12-28T14:25:51;2.70;;;1.00;;
15966;SDS011;15175;48.154;11.534;2023-12-28T14:31:55;3.30;;;1.20;;
15966;SDS011;15175;48.154;11.534;2023-12-28T14:37:58;2.00;;;0.80;;
15966;SDS011;15175;48.154;11.534;2023-12-28T14:44:00;2.92;;;0.88;;
15966;SDS011;15175;48.154;11.534;2023-12-28T14:50:05;2.72;;;0.88;;
15966;SDS011;15175;48.154;11.534;2023-12-28T14:56:08;4.82;;;0.90;;
15966;SDS011;15175;48.154;11.534;2023-12-28T15:02:10;3.13;;;1.20;;
15966;SDS011;15175;48.154;11.534;2023-12-28T15:08:14;2.92;;;0.90;;
15966;SDS011;15175;48.154;11.534;2023-12-28T15:14:17;2.55;;;0.80;;
15966;SDS011;15175;48.154;11.534;2023-12-28T15:26:23;2.83;;;0.93;;
15966;SDS011;15175;48.154;11.534;2023-12-28T15:32:25;4.03;;;0.93;;
15966;SDS011;15175;48.154;11.534;2023-12-28T15:38:27;5.68;;;1.23;;
15966;SDS011;15175;48.154;11.534;2023-12-28T15:44:31;3.03;;;0.98;;
15966;SDS011;15175;48.154;11.534;2023-12-28T15:50:33;4.15;;;1.15;;
15966;SDS011;15175;48.154;11.534;2023-12-28T15:56:36;2.22;;;0.90;;
15966;SDS011;15175;48.154;11.534;2023-12-28T16:02:43;2.80;;;1.10;;
15966;SDS011;15175;48.154;11.534;2023-12-28T16:08:45;2.80;;;1.00;;
15966;SDS011;15175;48.154;11.534;2023-12-28T16:20:52;6.25;;;1.70;;
15966;SDS011;15175;48.154;11.534;2023-12-28T16:26:54;3.08;;;1.30;;
15966;SDS011;15175;48.154;11.534;2023-12-28T16:32:57;4.57;;;1.10;;
15966;SDS011;15175;48.154;11.534;2023-12-28T16:39:01;5.03;;;1.40;;
15966;SDS011;15175;48.154;11.534;2023-12-28T16:45:03;4.57;;;1.20;;
15966;SDS011;15175;48.154;11.534;2023-12-28T16:51:06;2.50;;;1.02;;
15966;SDS011;15175;48.154;11.534;2023-12-28T16:57:12;4.10;;;1.33;;
15966;SDS011;15175;48.154;11.534;2023-12-28T17:03:14;2.65;;;1.00;;
15966;SDS011;15175;48.154;11.534;2023-12-28T17:09:16;4.55;;;1.05;;
15966;SDS011;15175;48.154;11.534;2023-12-28T17:15:21;2.55;;;0.80;;
15966;SDS011;15175;48.154;11.534;2023-12-28T17:21:24;4.13;;;1.23;;
15966;SDS011;15175;48.154;11.534;2023-12-28T17:27:29;4.57;;;1.98;;
15966;SDS011;15175;48.154;11.534;2023-12-28T17:33:37;5.63;;;1.70;;
15966;SDS011;15175;48.154;11.534;2023-12-28T17:39:40;4.45;;;1.40;;
15966;SDS011;15175;48.154;11.534;2023-12-28T17:45:45;3.33;;;1.40;;
15966;SDS011;15175;48.154;11.534;2023-12-28T17:51:57;3.90;;;1.15;;
15966;SDS011;15175;48.154;11.534;2023-12-28T17:58:01;4.43;;;1.35;;
15966;SDS011;15175;48.154;11.534;2023-12-28T18:04:03;3.13;;;1.00;;
15966;SDS011;15175;48.154;11.534;2023-12-28T18:10:07;3.50;;;1.30;;
15966;SDS011;15175;48.154;11.534;2023-12-28T18:16:10;2.90;;;0.98;;
15966;SDS011;15175;48.154;11.534;2023-12-28T18:22:12;2.45;;;1.00;;
15966;SDS011;15175;48.154;11.534;2023-12-28T18:28:16;3.30;;;1.10;;
15966;SDS011;15175;48.154;11.534;2023-12-28T18:34:18;5.95;;;1.20;;
15966;SDS011;15175;48.154;11.534;2023-12-28T18:40:20;3.78;;;1.20;;
15966;SDS011;15175;48.154;11.534;2023-12-28T18:46:24;4.80;;;1.38;;
15966;SDS011;15175;48.154;11.534;2023-12-28T18:52:26;3.55;;;1.45;;
15966;SDS011;15175;48.154;11.534;2023-12-28T18:58:29;4.30;;;1.63;;
15966;SDS011;15175;48.154;11.534;2023-12-28T19:04:32;3.33;;;1.13;;
15966;SDS011;15175;48.154;11.534;2023-12-28T19:10:35;4.07;;;1.40;;
15966;SDS011;15175;48.154;11.534;2023-12-28T19:16:37;3.33;;;1.60;;
15966;SDS011;15175;48.154;11.534;2023-12-28T19:22:41;2.88;;;1.30;;
15966;SDS011;15175;48.154;11.534;2023-12-28T19:28:43;4.60;;;1.20;;
15966;SDS011;15175;48.154;11.534;2023-12-28T19:34:45;4.70;;;1.50;;
15966;SDS011;15175;48.154;11.534;2023-12-28T19:40:49;3.95;;;1.58;;
15966;SDS011;15175;48.154;11.534;2023-12-28T19:46:51;4.72;;;1.80;;
15966;SDS011;15175;48.154;11.534;2023-12-28T19:52:53;5.10;;;1.80;;
15966;SDS011;15175;48.154;11.534;2023-12-28T19:58:57;6.60;;;1.90;;
15966;SDS011;15175;48.154;11.534;2023-12-28T20:04:59;4.40;;;1.40;;
15966;SDS011;15175;48.154;11.534;2023-12-28T20:11:03;5.07;;;1.58;;
15966;SDS011;15175;48.154;11.534;2023-12-28T20:17:07;4.28;;;1.58;;
15966;SDS011;15175;48.154;11.534;2023-12-28T20:23:09;3.53;;;1.60;;
15966;SDS011;15175;48.154;11.534;2023-12-28T20:29:11;3.45;;;1.58;;
15966;SDS011;15175;48.154;11.534;2023-12-28T20:35:15;5.80;;;1.80;;
15966;SDS011;15175;48.154;11.534;2023-12-28T20:41:18;4.72;;;1.90;;
15966;SDS011;15175;48.154;11.534;2023-12-28T20:47:20;5.93;;;2.10;;
15966;SDS011;15175;48.154;11.534;2023-12-28T20:53:24;5.65;;;2.28;;
15966;SDS011;15175;48.154;11.534;2023-12-28T20:59:26;5.82;;;2.55;;
15966;SDS011;15175;48.154;11.534;2023-12-28T21:05:28;8.80;;;2.97;;
15966;SDS011;15175;48.154;11.534;2023-12-28T21:11:32;7.43;;;3.03;;
15966;SDS011;15175;48.154;11.534;2023-12-28T21:17:34;5.70;;;1.95;;
15966;SDS011;15175;48.154;11.534;2023-12-28T21:23:37;4.28;;;1.75;;
15966;SDS011;15175;48.154;11.534;2023-12-28T21:35:43;3.60;;;1.27;;
15966;SDS011;15175;48.154;11.534;2023-12-28T21:41:45;3.78;;;1.42;;
15966;SDS011;15175;48.154;11.534;2023-12-28T21:47:49;3.08;;;0.98;;
15966;SDS011;15175;48.154;11.534;2023-12-28T21:53:51;3.47;;;1.33;;
15966;SDS011;15175;48.154;11.534;2023-12-28T21:59:53;3.25;;;1.48;;
15966;SDS011;15175;48.154;11.534;2023-12-28T22:05:57;4.32;;;1.00;;
15966;SDS011;15175;48.154;11.534;2023-12-28T22:12:00;3.58;;;1.10;;
15966;SDS011;15175;48.154;11.534;2023-12-28T22:18:03;3.17;;;0.98;;
15966;SDS011;15175;48.154;11.534;2023-12-28T22:24:09;2.83;;;0.90;;
15966;SDS011;15175;48.154;11.534;2023-12-28T22:30:12;3.08;;;0.88;;
15966;SDS011;15175;48.154;11.534;2023-12-28T22:36:17;2.40;;;0.90;;
15966;SDS011;15175;48.154;11.534;2023-12-28T22:42:20;2.88;;;0.93;;
15966;SDS011;15175;48.154;11.534;2023-12-28T22:48:22;1.77;;;0.80;;
15966;SDS011;15175;48.154;11.534;2023-12-28T22:54:25;1.38;;;0.60;;
15966;SDS011;15175;48.154;11.534;2023-12-28T23:00:29;3.22;;;0.80;;
15966;SDS011;15175;48.154;11.534;2023-12-28T23:06:34;1.98;;;0.80;;
15966;SDS011;15175;48.154;11.534;2023-12-28T23:12:36;2.50;;;1.02;;
15966;SDS011;15175;48.154;11.534;2023-12-28T23:18:41;1.45;;;0.63;;
15966;SDS011;15175;48.154;11.534;2023-12-28T23:24:44;2.95;;;0.90;;
15966;SDS011;15175;48.154;11.534;2023-12-28T23:30:46;2.65;;;0.90;;
15966;SDS011;15175;48.154;11.534;2023-12-28T23:36:49;3.58;;;0.90;;
15966;SDS011;15175;48.154;11.534;2023-12-28T23:42:52;4.78;;;1.00;;
15966;SDS011;15175;48.154;11.534;2023-12-28T23:48:54;2.88;;;1.10;;
15966;SDS011;15175;48.154;11.534;2023-12-28T23:54:57;1.80;;;0.85;;
